Time;durP1;ratioP1;P1;durP2;ratioP2;P2;SDS_P1;SDS_P2;PMS_P1;PMS_P2;Temp;Humidity;BMP_temperature;BMP_pressure;BME280_temperature;BME280_humidity;BME280_pressure;Samples;Min_cycle;Max_cycle;Signal;HPM_P1;HPM_P2
2021/04/15 00:00:37;;;;;;;1.10;0.90;;;;;;;0.24;100.00;100139.81;10501036;28;20179;-76
2021/04/15 00:05:59;;;;;;;3.33;1.07;;;;;;;0.19;100.00;100137.22;10501951;28;20617;-77
2021/04/15 00:11:21;;;;;;;2.60;1.70;;;;;;;0.17;100.00;100134.81;10486406;28;20223;-77
2021/04/15 00:16:40;;;;;;;1.20;0.80;;;;;;;-0.01;100.00;100135.78;10499816;28;20206;-76
2021/04/15 00:21:58;;;;;;;1.23;1.13;;;;;;;-0.14;100.00;100133.09;10501045;28;20171;-76
2021/04/15 00:27:17;;;;;;;0.80;0.40;;;;;;;-0.18;100.00;100137.53;10500728;28;20214;-77
2021/04/15 00:32:36;;;;;;;0.90;0.70;;;;;;;-0.11;100.00;100129.78;10484404;28;20258;-77
2021/04/15 00:37:55;;;;;;;0.80;0.50;;;;;;;-0.22;100.00;100125.69;10500141;28;20214;-76
2021/04/15 00:43:15;;;;;;;0.90;0.60;;;;;;;-0.35;100.00;100121.13;10500314;28;20198;-77
2021/04/15 00:48:42;;;;;;;0.90;0.70;;;;;;;-0.41;100.00;100119.66;10483888;28;20616;-76
2021/04/15 00:54:05;;;;;;;0.80;0.60;;;;;;;-0.38;100.00;100112.81;10499794;28;20203;-78
2021/04/15 00:59:26;;;;;;;0.90;0.80;;;;;;;-0.61;100.00;100109.25;10484546;28;20536;-77
2021/04/15 01:04:46;;;;;;;0.90;0.70;;;;;;;-0.70;100.00;100112.97;10483247;28;20645;-76
2021/04/15 01:10:06;;;;;;;1.40;0.73;;;;;;;-0.48;100.00;100115.75;10499494;28;20199;-77
2021/04/15 01:15:46;;;;;;;1.30;0.80;;;;;;;-0.56;100.00;100114.53;10482212;28;20716;-79
2021/04/15 01:21:29;;;;;;;2.83;1.10;;;;;;;-0.59;100.00;100117.03;10483411;28;20190;-78
2021/04/15 01:27:14;;;;;;;0.80;0.50;;;;;;;-0.73;100.00;100108.94;10483150;28;20696;-79
2021/04/15 01:32:54;;;;;;;3.80;1.60;;;;;;;-0.94;100.00;100106.13;10468308;28;20583;-78
2021/04/15 01:38:29;;;;;;;0.80;0.50;;;;;;;-1.03;100.00;100107.94;10479486;28;20214;-79
2021/04/15 01:43:55;;;;;;;1.40;1.10;;;;;;;-1.00;100.00;100107.34;10498100;28;20175;-75
2021/04/15 01:49:18;;;;;;;1.00;0.90;;;;;;;-0.84;100.00;100100.56;10481781;28;20179;-77
2021/04/15 01:54:45;;;;;;;0.90;0.70;;;;;;;-0.95;100.00;100104.53;10497813;28;20207;-76
2021/04/15 02:00:17;;;;;;;1.33;0.83;;;;;;;-1.04;100.00;100109.03;10497852;28;20174;-76
2021/04/15 02:05:40;;;;;;;3.00;2.80;;;;;;;-1.08;100.00;100113.44;10482256;28;20179;-79
2021/04/15 02:11:24;;;;;;;1.23;1.13;;;;;;;-1.16;100.00;100116.81;10497063;28;20195;-79
2021/04/15 02:16:48;;;;;;;1.00;0.60;;;;;;;-1.29;100.00;100113.00;10480589;28;20210;-78
2021/04/15 02:22:29;;;;;;;1.43;1.33;;;;;;;-1.27;100.00;100120.78;10482241;28;20595;-79
2021/04/15 02:27:54;;;;;;;1.00;0.50;;;;;;;-1.27;100.00;100112.69;10481516;28;20230;-79
2021/04/15 02:33:21;;;;;;;1.30;0.90;;;;;;;-1.34;100.00;100117.69;10501567;28;20194;-78
2021/04/15 02:38:40;;;;;;;0.90;0.70;;;;;;;-1.47;100.00;100116.56;10490212;28;20171;-79
2021/04/15 02:44:06;;;;;;;1.60;1.37;;;;;;;-1.56;100.00;100112.13;10505166;28;20183;-79
2021/04/15 02:49:27;;;;;;;1.07;0.60;;;;;;;-1.60;100.00;100115.72;10503806;28;20178;-79
2021/04/15 02:54:52;;;;;;;1.20;1.03;;;;;;;-1.70;100.00;100108.59;10504473;28;20623;-79
2021/04/15 03:00:17;;;;;;;1.80;1.70;;;;;;;-1.71;100.00;100115.09;10489507;28;20266;-79
2021/04/15 03:05:58;;;;;;;0.80;0.50;;;;;;;-1.69;100.00;100112.09;10504292;28;20611;-79
2021/04/15 03:11:27;;;;;;;3.83;1.13;;;;;;;-1.78;100.00;100117.38;10503926;28;20277;-78
2021/04/15 03:16:49;;;;;;;1.40;1.10;;;;;;;-1.80;100.00;100113.34;10502211;28;20250;-79
2021/04/15 03:22:23;;;;;;;2.03;1.93;;;;;;;-1.89;100.00;100115.91;10503739;28;20179;-79
2021/04/15 03:27:56;;;;;;;0.90;0.70;;;;;;;-1.93;100.00;100109.50;10501841;28;20222;-79
2021/04/15 03:33:26;;;;;;;1.27;0.90;;;;;;;-1.91;100.00;100115.41;10499648;28;20253;-79
2021/04/15 03:39:06;;;;;;;0.80;0.53;;;;;;;-1.93;100.00;100120.28;10485556;28;20346;-79
2021/04/15 03:44:35;;;;;;;0.90;0.70;;;;;;;-2.00;100.00;100114.44;10499792;28;20179;-79
2021/04/15 03:50:07;;;;;;;2.50;0.93;;;;;;;-2.09;100.00;100120.81;10499017;28;20254;-79
2021/04/15 03:55:35;;;;;;;0.90;0.60;;;;;;;-2.12;100.00;100127.59;10499653;28;20639;-79
2021/04/15 04:01:06;;;;;;;0.80;0.50;;;;;;;-2.21;100.00;100121.25;10498763;28;20187;-79
2021/04/15 04:06:27;;;;;;;1.57;1.13;;;;;;;-2.25;100.00;100122.91;10499898;28;20531;-79
2021/04/15 04:11:48;;;;;;;0.80;0.60;;;;;;;-2.24;100.00;100127.19;10499626;28;20664;-79
2021/04/15 04:17:13;;;;;;;0.80;0.67;;;;;;;-2.32;100.00;100125.16;10476627;28;20210;-79
2021/04/15 04:22:35;;;;;;;1.43;0.60;;;;;;;-2.38;100.00;100130.91;10499302;28;20556;-79
2021/04/15 04:28:18;;;;;;;28.23;1.10;;;;;;;-2.35;100.00;100135.72;10461480;28;657700;-80
2021/04/15 04:33:43;;;;;;;9.60;1.60;;;;;;;-2.28;100.00;100133.47;10499629;28;20191;-80
2021/04/15 04:39:04;;;;;;;0.87;0.57;;;;;;;-2.28;100.00;100130.75;10500845;28;20175;-81
2021/04/15 04:44:41;;;;;;;1.40;0.80;;;;;;;-2.28;100.00;100147.75;10485454;28;20630;-80
2021/04/15 04:50:06;;;;;;;1.17;1.07;;;;;;;-2.24;100.00;100145.28;10499021;28;20676;-80
2021/04/15 04:55:57;;;;;;;0.90;0.63;;;;;;;-2.24;100.00;100154.16;10484077;28;20202;-80
2021/04/15 05:01:17;;;;;;;0.80;0.50;;;;;;;-2.21;100.00;100155.47;10465549;28;20187;-79
2021/04/15 05:06:41;;;;;;;1.00;0.83;;;;;;;-2.15;100.00;100159.72;10523991;28;20167;-79
2021/04/15 05:12:05;;;;;;;1.00;0.80;;;;;;;-2.09;100.00;100150.47;10513455;28;20237;-79
2021/04/15 05:17:23;;;;;;;1.00;0.90;;;;;;;-2.00;100.00;100154.09;10524741;28;20628;-79
2021/04/15 05:22:57;;;;;;;1.00;0.90;;;;;;;-1.79;100.00;100158.91;10540873;28;20174;-80
2021/04/15 05:28:17;;;;;;;2.60;1.17;;;;;;;-1.83;100.00;100159.78;10525030;28;20297;-80
2021/04/15 05:33:38;;;;;;;1.50;1.13;;;;;;;-1.76;100.00;100165.59;10539160;28;20206;-81
2021/04/15 05:39:00;;;;;;;4.00;1.60;;;;;;;-1.79;100.00;100164.31;10525066;28;20640;-80
2021/04/15 05:44:45;;;;;;;0.97;0.87;;;;;;;-1.69;100.00;100172.22;10540211;28;20202;-79
2021/04/15 05:50:12;;;;;;;0.90;0.60;;;;;;;-1.65;100.00;100173.25;10523342;28;20170;-79
2021/04/15 05:55:38;;;;;;;0.90;0.60;;;;;;;-1.47;100.00;100170.53;10539632;28;20202;-80
2021/04/15 06:01:00;;;;;;;1.90;1.10;;;;;;;-1.30;100.00;100178.09;10522751;28;20227;-79
2021/04/15 06:06:25;;;;;;;3.03;1.43;;;;;;;-0.95;100.00;100174.75;10539281;28;20174;-79
2021/04/15 06:12:01;;;;;;;0.90;0.60;;;;;;;-0.53;100.00;100178.78;10523985;28;20189;-79
2021/04/15 06:17:33;;;;;;;1.10;1.00;;;;;;;-0.16;100.00;100175.84;10504585;28;20210;-80
2021/04/15 06:23:05;;;;;;;4.40;2.27;;;;;;;0.26;100.00;100175.47;10482106;28;20552;-78
2021/04/15 06:28:40;;;;;;;1.50;1.40;;;;;;;0.76;100.00;100177.78;10481648;28;20680;-78
2021/04/15 06:34:06;;;;;;;4.23;1.50;;;;;;;1.42;100.00;100178.44;10480501;28;20281;-78
2021/04/15 06:39:50;;;;;;;1.47;1.33;;;;;;;2.20;100.00;100173.72;10496779;28;20220;-76
2021/04/15 06:45:18;;;;;;;2.70;2.30;;;;;;;2.79;100.00;100176.41;10496632;28;20182;-76
2021/04/15 06:50:59;;;;;;;3.50;2.07;;;;;;;3.29;100.00;100175.47;10496634;28;20641;-77
2021/04/15 06:57:00;;;;;;;2.90;2.57;;;;;;;4.24;100.00;100171.97;10496232;28;20211;-75
2021/04/15 07:02:56;;;;;;;5.50;1.97;;;;;;;4.98;100.00;100176.28;10473579;28;20223;-76
2021/04/15 07:08:51;;;;;;;3.17;2.90;;;;;;;5.64;97.32;100168.47;10476283;28;20198;-74
2021/04/15 07:14:35;;;;;;;1.53;1.17;;;;;;;6.04;95.96;100174.84;10496115;28;20191;-76
2021/04/15 07:20:00;;;;;;;4.93;2.83;;;;;;;5.98;91.17;100168.00;10499558;28;20253;-75
2021/04/15 07:25:38;;;;;;;8.10;2.10;;;;;;;6.53;90.83;100171.66;10488288;28;20609;-76
2021/04/15 07:31:06;;;;;;;3.67;2.50;;;;;;;7.10;86.28;100171.34;10502234;28;20547;-76
2021/04/15 07:36:38;;;;;;;1.60;1.50;;;;;;;7.33;82.99;100179.41;10502659;28;20866;-75
2021/04/15 07:42:09;;;;;;;2.77;1.83;;;;;;;6.67;86.69;100182.22;10502648;28;20621;-75
2021/04/15 07:48:10;;;;;;;5.60;1.40;;;;;;;7.27;83.21;100175.31;10486459;28;20179;-76
2021/04/15 07:53:44;;;;;;;4.53;1.67;;;;;;;8.03;79.57;100183.91;10489308;28;20179;-75
2021/04/15 07:59:06;;;;;;;4.47;2.23;;;;;;;8.15;66.01;100173.66;10513385;28;20193;-76
2021/04/15 08:04:47;;;;;;;2.83;2.00;;;;;;;8.94;62.80;100184.00;10533727;28;20186;-76
2021/04/15 08:10:28;;;;;;;1.90;1.70;;;;;;;9.30;60.21;100181.56;10528181;28;20198;-76
2021/04/15 08:16:09;;;;;;;3.23;1.60;;;;;;;9.80;57.42;100178.53;10540737;28;20205;-76
2021/04/15 08:21:59;;;;;;;3.13;1.90;;;;;;;10.09;58.29;100186.13;10556525;28;20182;-76
2021/04/15 08:27:21;;;;;;;8.00;2.50;;;;;;;10.86;53.30;100177.78;10542664;28;20632;-76
2021/04/15 08:32:59;;;;;;;9.10;2.90;;;;;;;10.77;52.89;100174.53;10541411;28;20170;-76
2021/04/15 08:38:57;;;;;;;8.03;2.07;;;;;;;11.28;51.51;100173.53;10517456;28;20207;-76
2021/04/15 08:44:40;;;;;;;2.30;2.10;;;;;;;11.80;48.17;100172.50;10485480;28;20171;-76
2021/04/15 08:50:12;;;;;;;4.03;3.20;;;;;;;11.07;49.01;100178.03;10484094;28;20632;-77
2021/04/15 08:55:39;;;;;;;5.80;2.17;;;;;;;11.27;48.21;100168.44;10542469;28;20305;-77
2021/04/15 09:01:23;;;;;;;1.50;1.40;;;;;;;10.69;49.21;100172.06;10540600;28;20628;-77
2021/04/15 09:06:51;;;;;;;2.10;1.40;;;;;;;9.99;49.75;100171.03;10541669;28;20186;-76
2021/04/15 09:12:44;;;;;;;3.67;1.37;;;;;;;8.69;52.45;100173.69;10525943;28;20532;-79
2021/04/15 09:18:12;;;;;;;1.50;1.17;;;;;;;8.64;52.41;100166.53;10539412;28;20210;-77
2021/04/15 09:23:46;;;;;;;2.43;2.00;;;;;;;8.66;52.93;100166.97;10525634;28;20182;-78
2021/04/15 09:29:18;;;;;;;2.90;2.70;;;;;;;8.36;54.44;100165.13;10524517;28;20213;-78
2021/04/15 09:35:05;;;;;;;3.93;1.80;;;;;;;7.91;55.50;100167.59;10521498;28;20292;-76
2021/04/15 09:40:36;;;;;;;1.30;1.00;;;;;;;8.06;55.35;100159.31;10527452;28;20174;-78
2021/04/15 09:46:11;;;;;;;9.40;2.83;;;;;;;8.64;53.10;100154.78;10538665;28;20190;-77
2021/04/15 09:51:39;;;;;;;2.80;1.73;;;;;;;10.25;49.32;100146.28;10526354;28;20191;-78
2021/04/15 09:57:12;;;;;;;2.40;1.87;;;;;;;10.87;46.19;100151.03;10514919;28;20214;-78
2021/04/15 10:02:46;;;;;;;2.70;2.50;;;;;;;10.29;47.25;100149.91;10510199;28;20178;-76
2021/04/15 10:08:27;;;;;;;1.80;1.70;;;;;;;9.81;47.65;100153.44;10515486;28;20201;-78
2021/04/15 10:13:58;;;;;;;1.50;1.40;;;;;;;9.66;47.04;100154.38;10539328;28;20679;-78
2021/04/15 10:19:51;;;;;;;2.60;2.23;;;;;;;9.35;47.68;100151.09;10536751;28;20178;-77
2021/04/15 10:25:16;;;;;;;2.87;1.90;;;;;;;9.07;51.37;100145.06;10538935;28;20174;-77
2021/04/15 10:30:54;;;;;;;1.47;1.10;;;;;;;9.17;52.12;100149.16;10536474;28;20809;-79
2021/04/15 10:37:00;;;;;;;3.97;1.30;;;;;;;9.14;51.40;100142.44;10537127;28;20225;-79
2021/04/15 10:42:34;;;;;;;1.00;0.70;;;;;;;9.24;49.69;100147.34;10409791;28;20188;-77
2021/04/15 10:48:18;;;;;;;1.63;1.50;;;;;;;8.98;52.43;100169.19;10530200;28;20182;-77
2021/04/15 10:53:54;;;;;;;1.20;1.10;;;;;;;8.52;53.92;100176.84;10541536;28;20178;-76
2021/04/15 10:59:26;;;;;;;2.57;2.37;;;;;;;8.62;54.04;100176.28;10546772;28;20190;-77
2021/04/15 11:04:47;;;;;;;1.20;1.10;;;;;;;9.24;53.04;100171.28;10540156;28;20648;-77
2021/04/15 11:10:18;;;;;;;1.90;0.90;;;;;;;10.01;49.79;100167.94;10508150;28;20210;-77
2021/04/15 11:15:46;;;;;;;1.10;0.90;;;;;;;10.00;45.39;100152.59;10487256;28;20203;-78
2021/04/15 11:21:24;;;;;;;1.57;1.47;;;;;;;9.86;44.50;100153.13;10527565;28;20221;-77
2021/04/15 11:26:46;;;;;;;1.60;0.80;;;;;;;9.70;43.56;100136.00;10545641;28;20222;-77
2021/04/15 11:32:42;;;;;;;4.73;2.17;;;;;;;9.99;42.34;100118.03;10544197;28;20646;-77
2021/04/15 11:38:15;;;;;;;3.00;1.00;;;;;;;11.09;40.02;100114.34;10544699;28;20293;-77
2021/04/15 11:43:37;;;;;;;1.93;1.00;;;;;;;12.42;37.52;100112.28;10503232;28;20183;-77
2021/04/15 11:49:12;;;;;;;1.37;1.27;;;;;;;14.31;37.78;100103.09;10486434;28;20171;-77
2021/04/15 11:54:40;;;;;;;1.20;1.00;;;;;;;14.89;32.99;100094.97;10486959;28;20194;-78
2021/04/15 11:59:59;;;;;;;2.53;1.43;;;;;;;14.41;35.19;100089.25;10541804;28;20636;-77
2021/04/15 12:05:37;;;;;;;1.87;1.00;;;;;;;15.54;31.61;100081.91;10542257;28;20190;-78
2021/04/15 12:11:07;;;;;;;1.93;1.40;;;;;;;15.37;32.31;100093.94;10543868;28;20878;-78
2021/04/15 12:16:48;;;;;;;1.70;1.00;;;;;;;15.65;29.29;100091.72;10541877;28;20222;-79
2021/04/15 12:22:32;;;;;;;2.23;1.40;;;;;;;15.17;29.64;100084.50;10543365;28;20558;-78
2021/04/15 12:28:10;;;;;;;2.03;1.63;;;;;;;14.17;30.83;100092.06;10542796;28;20217;-78
2021/04/15 12:33:44;;;;;;;1.53;1.30;;;;;;;13.14;30.17;100088.09;10526403;28;20182;-78
2021/04/15 12:39:11;;;;;;;2.47;1.53;;;;;;;13.49;30.25;100077.88;10542631;28;20182;-78
2021/04/15 12:44:32;;;;;;;3.23;2.10;;;;;;;14.53;30.10;100063.09;10542649;28;20181;-78
2021/04/15 12:49:52;;;;;;;1.60;1.30;;;;;;;14.56;28.52;100065.84;10506051;28;20206;-79
2021/04/15 12:55:15;;;;;;;4.67;1.90;;;;;;;13.10;29.55;100073.47;10503849;28;20210;-78
2021/04/15 13:00:40;;;;;;;0.97;0.80;;;;;;;11.58;30.89;100074.28;10483692;28;20171;-78
2021/04/15 13:06:10;;;;;;;1.50;1.10;;;;;;;10.84;30.47;100059.00;10499676;28;20274;-77
2021/04/15 13:11:33;;;;;;;0.90;0.60;;;;;;;10.77;30.88;100058.91;10499718;28;20171;-78
2021/04/15 13:16:54;;;;;;;1.50;1.10;;;;;;;10.87;32.32;100058.25;10482588;28;20289;-78
2021/04/15 13:22:17;;;;;;;1.00;0.70;;;;;;;11.02;32.99;100050.94;10508779;28;20183;-78
2021/04/15 13:27:36;;;;;;;1.07;0.97;;;;;;;11.19;33.29;100045.56;10524009;28;20230;-78
2021/04/15 13:33:20;;;;;;;1.87;1.00;;;;;;;11.93;32.28;100040.28;10539348;28;20174;-77
2021/04/15 13:38:45;;;;;;;1.87;0.80;;;;;;;12.53;32.31;100035.03;10539982;28;20308;-77
2021/04/15 13:44:13;;;;;;;1.50;1.33;;;;;;;12.84;34.17;100030.41;10524943;28;20543;-78
2021/04/15 13:49:37;;;;;;;2.60;0.83;;;;;;;12.00;34.74;100028.47;10538802;28;20253;-77
2021/04/15 13:54:57;;;;;;;1.87;0.97;;;;;;;11.53;35.17;100030.53;10539868;28;20284;-78
2021/04/15 14:00:39;;;;;;;1.43;1.30;;;;;;;11.08;35.67;100030.91;10524556;28;20182;-76
2021/04/15 14:06:10;;;;;;;1.30;0.77;;;;;;;11.06;35.30;100037.97;10531977;28;20193;-77
2021/04/15 14:11:40;;;;;;;1.37;1.27;;;;;;;11.91;34.33;100030.81;10539479;28;20257;-77
2021/04/15 14:16:59;;;;;;;2.77;1.20;;;;;;;11.85;37.26;100023.28;10522029;28;20285;-77
2021/04/15 14:22:21;;;;;;;1.00;0.83;;;;;;;12.09;37.89;100028.91;10539413;28;20174;-77
2021/04/15 14:27:41;;;;;;;3.07;1.90;;;;;;;11.04;40.30;100029.28;10542079;28;20229;-77
2021/04/15 14:33:18;;;;;;;1.20;1.00;;;;;;;10.39;40.42;100036.44;10531133;28;20530;-78
2021/04/15 14:38:39;;;;;;;1.77;1.53;;;;;;;10.04;41.12;100024.22;10531735;28;20236;-78
2021/04/15 14:44:20;;;;;;;0.90;0.60;;;;;;;9.67;40.92;100026.03;10547176;28;20173;-78
2021/04/15 14:49:39;;;;;;;1.40;1.30;;;;;;;9.52;40.29;100027.00;10545642;28;20182;-77
2021/04/15 14:54:58;;;;;;;0.90;0.50;;;;;;;9.58;39.23;100018.03;10546715;28;20233;-78
2021/04/15 15:00:17;;;;;;;2.80;1.33;;;;;;;9.55;39.40;100012.50;10547045;28;20182;-77
2021/04/15 15:05:41;;;;;;;1.10;0.80;;;;;;;10.37;37.50;100006.59;10546530;28;20201;-77
2021/04/15 15:11:00;;;;;;;1.17;0.90;;;;;;;11.24;35.94;100006.66;10530807;28;20178;-77
2021/04/15 15:16:25;;;;;;;4.70;2.13;;;;;;;12.16;35.11;99998.59;10544582;28;20197;-78
2021/04/15 15:21:53;;;;;;;3.63;1.23;;;;;;;11.51;38.68;100005.31;10545676;28;20162;-78
2021/04/15 15:27:21;;;;;;;0.97;0.70;;;;;;;11.69;37.43;100001.50;10544904;28;20217;-78
2021/04/15 15:32:43;;;;;;;4.93;1.40;;;;;;;11.88;37.06;100008.72;10544136;28;20736;-77
2021/04/15 15:38:02;;;;;;;3.30;1.40;;;;;;;12.00;36.02;99998.94;10528208;28;20205;-77
2021/04/15 15:43:30;;;;;;;2.70;1.00;;;;;;;11.98;34.36;100012.31;10529662;28;20210;-78
2021/04/15 15:48:54;;;;;;;1.40;0.80;;;;;;;11.04;36.94;100004.50;10528323;28;20190;-77
2021/04/15 15:54:49;;;;;;;1.20;0.90;;;;;;;10.53;37.30;100001.66;10544579;28;20711;-77
2021/04/15 16:00:17;;;;;;;2.07;1.40;;;;;;;10.12;37.50;99995.66;10541071;28;20186;-78
2021/04/15 16:05:37;;;;;;;0.80;0.50;;;;;;;9.81;37.16;99998.75;10528809;28;20201;-78
2021/04/15 16:10:57;;;;;;;0.90;0.50;;;;;;;9.83;38.11;99996.44;10528706;28;20252;-77
2021/04/15 16:16:17;;;;;;;1.00;0.70;;;;;;;9.65;39.16;100000.88;10542290;28;20209;-77
2021/04/15 16:21:40;;;;;;;1.30;1.20;;;;;;;9.90;38.46;99988.28;10543516;28;20170;-78
2021/04/15 16:27:04;;;;;;;0.90;0.60;;;;;;;9.93;39.37;99995.78;10542913;28;20222;-78
2021/04/15 16:32:23;;;;;;;2.20;0.80;;;;;;;9.78;39.54;99994.81;10541723;28;20248;-78
2021/04/15 16:37:42;;;;;;;1.00;0.70;;;;;;;9.69;41.55;99988.00;10527121;28;20293;-77
2021/04/15 16:43:05;;;;;;;1.10;1.00;;;;;;;9.64;40.89;99985.56;10542638;28;20174;-78
2021/04/15 16:48:24;;;;;;;0.90;0.70;;;;;;;9.22;42.17;99993.16;10541353;28;20178;-78
2021/04/15 16:53:43;;;;;;;1.30;1.20;;;;;;;8.93;42.57;100001.28;10541933;28;20170;-78
2021/04/15 16:59:03;;;;;;;0.90;0.50;;;;;;;8.81;44.49;100001.47;10526617;28;20269;-78
2021/04/15 17:04:25;;;;;;;1.20;1.00;;;;;;;8.43;46.68;100006.25;10525049;28;20224;-78
2021/04/15 17:09:47;;;;;;;1.20;0.90;;;;;;;8.17;49.13;100003.38;10541340;28;20194;-78
2021/04/15 17:15:07;;;;;;;1.30;1.20;;;;;;;8.10;48.35;100004.00;10541197;28;20201;-78
2021/04/15 17:20:27;;;;;;;2.33;1.10;;;;;;;8.06;48.39;100002.34;10540516;28;20182;-78
2021/04/15 17:25:46;;;;;;;1.20;0.97;;;;;;;7.95;48.81;99996.66;10525421;28;20221;-78
2021/04/15 17:31:07;;;;;;;1.70;1.43;;;;;;;7.76;49.41;99995.81;10539502;28;20662;-77
2021/04/15 17:36:27;;;;;;;1.33;1.17;;;;;;;7.56;50.92;100007.09;10540115;28;20197;-78
2021/04/15 17:41:46;;;;;;;1.57;0.73;;;;;;;7.51;51.62;100005.41;10540192;28;20166;-78
2021/04/15 17:47:05;;;;;;;2.20;0.90;;;;;;;7.31;51.76;100013.94;10538750;28;20652;-78
2021/04/15 17:52:24;;;;;;;1.10;0.67;;;;;;;7.19;52.52;100008.56;10539962;28;20177;-78
2021/04/15 17:57:43;;;;;;;2.40;1.13;;;;;;;6.94;52.72;100020.06;10524083;28;20261;-78
2021/04/15 18:03:03;;;;;;;1.60;1.27;;;;;;;6.72;53.28;100013.25;10537894;28;20178;-78
2021/04/15 18:08:23;;;;;;;1.53;1.00;;;;;;;6.50;55.17;100023.97;10539423;28;20174;-78
2021/04/15 18:13:42;;;;;;;2.20;1.00;;;;;;;6.45;55.55;100026.97;10523939;28;20200;-78
2021/04/15 18:19:02;;;;;;;0.90;0.57;;;;;;;6.31;56.45;100020.31;10522603;28;20181;-78
2021/04/15 18:24:21;;;;;;;2.03;1.23;;;;;;;6.19;55.62;100028.53;10523665;28;20205;-78
2021/04/15 18:29:40;;;;;;;1.73;1.03;;;;;;;6.21;55.13;100029.00;10522743;28;20221;-77
2021/04/15 18:35:00;;;;;;;1.50;1.00;;;;;;;6.03;56.17;100036.69;10537307;28;20209;-77
2021/04/15 18:40:24;;;;;;;3.10;1.00;;;;;;;5.85;56.73;100035.38;10523283;28;20182;-78
2021/04/15 18:45:44;;;;;;;0.80;0.50;;;;;;;5.74;57.51;100042.41;10537332;28;20174;-78
2021/04/15 18:51:03;;;;;;;5.23;1.97;;;;;;;5.66;57.95;100056.97;10538334;28;20170;-78
2021/04/15 18:56:23;;;;;;;1.17;0.97;;;;;;;5.57;58.43;100050.06;10538115;28;20229;-78
2021/04/15 19:01:43;;;;;;;2.60;1.10;;;;;;;5.57;58.91;100059.03;10521798;28;20185;-78
2021/04/15 19:07:03;;;;;;;2.30;0.80;;;;;;;5.43;59.68;100062.47;10537909;28;20190;-78
2021/04/15 19:12:23;;;;;;;0.90;0.70;;;;;;;5.36;60.43;100073.16;10538055;28;20182;-78
2021/04/15 19:17:41;;;;;;;0.97;0.80;;;;;;;5.18;61.46;100069.03;10528345;28;20226;-78
2021/04/15 19:23:02;;;;;;;1.50;0.80;;;;;;;5.09;61.95;100082.00;10530498;28;20574;-78
2021/04/15 19:28:25;;;;;;;1.43;1.33;;;;;;;4.97;62.86;100085.50;10529657;28;20213;-78
2021/04/15 19:33:44;;;;;;;1.30;0.90;;;;;;;4.89;63.45;100083.66;10528792;28;20174;-77
2021/04/15 19:39:05;;;;;;;1.13;0.80;;;;;;;4.86;63.86;100084.34;10543884;28;20285;-78
2021/04/15 19:44:25;;;;;;;1.30;1.13;;;;;;;4.82;64.06;100083.41;10529306;28;20194;-78
2021/04/15 19:49:44;;;;;;;2.80;0.90;;;;;;;4.80;64.75;100090.34;10543425;28;20173;-78
2021/04/15 19:55:08;;;;;;;1.10;0.87;;;;;;;4.75;65.14;100085.13;10544347;28;20241;-78
2021/04/15 20:00:34;;;;;;;1.40;1.03;;;;;;;4.77;64.89;100083.63;10528860;28;20170;-78
2021/04/15 20:05:53;;;;;;;1.63;1.27;;;;;;;4.89;65.18;100088.31;10544085;28;20281;-78
2021/04/15 20:11:22;;;;;;;1.70;0.90;;;;;;;4.77;65.57;100080.09;10543771;28;20257;-78
2021/04/15 20:16:41;;;;;;;0.90;0.60;;;;;;;4.62;66.64;100078.03;10542202;28;20242;-78
2021/04/15 20:22:00;;;;;;;0.90;0.63;;;;;;;4.51;67.34;100084.22;10543438;28;20190;-78
2021/04/15 20:27:19;;;;;;;1.23;0.83;;;;;;;4.47;67.90;100084.09;10527223;28;20735;-78
2021/04/15 20:32:39;;;;;;;1.80;0.83;;;;;;;4.40;69.66;100081.13;10526317;28;20174;-78
2021/04/15 20:37:58;;;;;;;0.90;0.53;;;;;;;4.28;70.76;100072.88;10542158;28;20664;-78
2021/04/15 20:43:17;;;;;;;2.73;1.83;;;;;;;4.26;70.88;100069.72;10527202;28;20569;-78
2021/04/15 20:48:37;;;;;;;1.83;0.80;;;;;;;4.19;71.42;100072.19;10525862;28;20174;-78
2021/04/15 20:53:56;;;;;;;0.80;0.53;;;;;;;4.12;72.75;100063.75;10542372;28;20170;-78
2021/04/15 20:59:17;;;;;;;3.53;1.47;;;;;;;4.10;75.48;100065.22;10541972;28;20178;-78
2021/04/15 21:04:36;;;;;;;0.90;0.60;;;;;;;4.02;77.42;100060.63;10524988;28;20277;-78
2021/04/15 21:09:55;;;;;;;0.80;0.50;;;;;;;4.11;77.16;100055.91;10541427;28;20205;-78
2021/04/15 21:15:14;;;;;;;0.90;0.70;;;;;;;4.03;77.86;100054.88;10540797;28;20281;-78
2021/04/15 21:20:39;;;;;;;0.90;0.50;;;;;;;4.04;77.62;100061.88;10525444;28;20178;-78
2021/04/15 21:25:59;;;;;;;1.30;0.73;;;;;;;3.92;78.04;100056.41;10525214;28;20218;-78
2021/04/15 21:31:18;;;;;;;6.90;1.30;;;;;;;3.95;78.13;100052.19;10523774;28;20178;-78
2021/04/15 21:36:37;;;;;;;1.20;0.73;;;;;;;3.77;78.25;100056.19;10524146;28;20677;-78
2021/04/15 21:41:56;;;;;;;1.00;0.83;;;;;;;3.65;78.63;100050.66;10525020;28;20217;-78
2021/04/15 21:47:16;;;;;;;0.90;0.60;;;;;;;3.63;79.19;100058.34;10538668;28;20177;-78
2021/04/15 21:52:36;;;;;;;1.10;1.00;;;;;;;3.52;79.55;100048.97;10539999;28;20173;-78
2021/04/15 21:57:55;;;;;;;1.03;0.80;;;;;;;3.41;79.93;100050.50;10539093;28;20255;-78
2021/04/15 22:03:14;;;;;;;0.90;0.60;;;;;;;3.36;80.82;100050.69;10538403;28;20288;-78
2021/04/15 22:08:37;;;;;;;0.80;0.50;;;;;;;3.33;83.03;100053.25;10539541;28;20245;-78
2021/04/15 22:13:58;;;;;;;8.77;1.60;;;;;;;3.34;84.10;100046.69;10539603;28;20286;-78
2021/04/15 22:19:28;;;;;;;1.33;1.23;;;;;;;3.36;84.60;100044.44;10522484;28;20186;-78
2021/04/15 22:24:48;;;;;;;4.40;0.77;;;;;;;3.42;85.71;100048.56;10523830;28;20170;-78
2021/04/15 22:30:13;;;;;;;1.00;0.70;;;;;;;3.45;85.96;100039.75;10523302;28;20245;-77
2021/04/15 22:35:33;;;;;;;1.53;1.43;;;;;;;3.57;84.22;100035.19;10522825;28;20206;-78
2021/04/15 22:40:53;;;;;;;1.40;1.30;;;;;;;3.63;84.63;100038.53;10538932;28;20202;-78
2021/04/15 22:46:12;;;;;;;1.43;1.33;;;;;;;3.67;84.23;100040.25;10537472;28;20166;-77
2021/04/15 22:51:32;;;;;;;2.17;1.63;;;;;;;3.70;83.80;100038.81;10531313;28;20174;-78
2021/04/15 22:56:51;;;;;;;0.90;0.60;;;;;;;3.84;84.95;100039.31;10531236;28;20664;-78
2021/04/15 23:02:10;;;;;;;1.17;1.00;;;;;;;3.75;85.14;100027.72;10545361;28;20233;-77
2021/04/15 23:07:28;;;;;;;1.90;1.17;;;;;;;3.73;86.17;100029.97;10546552;28;20562;-78
2021/04/15 23:12:48;;;;;;;1.20;1.03;;;;;;;3.72;86.20;100026.44;10530995;28;20170;-78
2021/04/15 23:18:09;;;;;;;2.30;1.43;;;;;;;3.78;86.41;100021.63;10544434;28;20205;-78
2021/04/15 23:23:28;;;;;;;1.00;0.80;;;;;;;3.84;86.20;100023.00;10530538;28;20186;-78
2021/04/15 23:28:48;;;;;;;1.53;1.43;;;;;;;3.82;86.40;100028.78;10529924;28;20226;-78
2021/04/15 23:34:08;;;;;;;0.90;0.70;;;;;;;3.82;86.64;100017.09;10514904;28;20256;-78
2021/04/15 23:39:27;;;;;;;2.20;1.67;;;;;;;3.87;87.94;100014.19;10530097;28;20213;-78
2021/04/15 23:44:46;;;;;;;1.00;0.80;;;;;;;3.85;88.55;100011.00;10545137;28;20174;-78
2021/04/15 23:50:07;;;;;;;2.80;1.80;;;;;;;3.80;89.11;100005.72;10543845;28;20629;-77
2021/04/15 23:55:28;;;;;;;1.97;1.13;;;;;;;3.81;89.42;100010.84;10529177;28;20205;-78
